sensor_id;sensor_type;location;lat;lon;timestamp;P1;durP1;ratioP1;P2;durP2;ratioP2
7338;SDS011;33747;49.524;8.390;2023-06-14T00:01:24;9.55;;;3.67;;
7338;SDS011;33747;49.524;8.390;2023-06-14T00:03:50;5.43;;;3.90;;
7338;SDS011;33747;49.524;8.390;2023-06-14T00:06:15;11.05;;;3.72;;
7338;SDS011;33747;49.524;8.390;2023-06-14T00:08:40;5.03;;;3.50;;
7338;SDS011;33747;49.524;8.390;2023-06-14T00:11:06;10.80;;;3.50;;
7338;SDS011;33747;49.524;8.390;2023-06-14T00:13:32;15.98;;;4.10;;
7338;SDS011;33747;49.524;8.390;2023-06-14T00:15:58;5.55;;;3.60;;
7338;SDS011;33747;49.524;8.390;2023-06-14T00:18:23;9.18;;;3.80;;
7338;SDS011;33747;49.524;8.390;2023-06-14T00:20:49;6.32;;;3.80;;
7338;SDS011;33747;49.524;8.390;2023-06-14T00:23:14;6.90;;;3.63;;
7338;SDS011;33747;49.524;8.390;2023-06-14T00:25:40;7.65;;;3.63;;
7338;SDS011;33747;49.524;8.390;2023-06-14T00:28:05;4.88;;;3.38;;
7338;SDS011;33747;49.524;8.390;2023-06-14T00:30:31;9.60;;;4.30;;
7338;SDS011;33747;49.524;8.390;2023-06-14T00:32:56;5.82;;;3.30;;
7338;SDS011;33747;49.524;8.390;2023-06-14T00:35:22;4.47;;;3.40;;
7338;SDS011;33747;49.524;8.390;2023-06-14T00:37:47;5.97;;;4.00;;
7338;SDS011;33747;49.524;8.390;2023-06-14T00:40:13;7.07;;;3.88;;
7338;SDS011;33747;49.524;8.390;2023-06-14T00:42:38;11.73;;;3.75;;
7338;SDS011;33747;49.524;8.390;2023-06-14T00:45:04;12.73;;;4.47;;
7338;SDS011;33747;49.524;8.390;2023-06-14T00:47:29;6.50;;;4.22;;
7338;SDS011;33747;49.524;8.390;2023-06-14T00:49:55;13.95;;;3.70;;
7338;SDS011;33747;49.524;8.390;2023-06-14T00:52:23;6.80;;;3.45;;
7338;SDS011;33747;49.524;8.390;2023-06-14T00:54:51;12.82;;;4.20;;
7338;SDS011;33747;49.524;8.390;2023-06-14T00:57:17;8.90;;;4.03;;
7338;SDS011;33747;49.524;8.390;2023-06-14T00:59:46;6.00;;;4.10;;
7338;SDS011;33747;49.524;8.390;2023-06-14T01:02:14;6.57;;;3.60;;
7338;SDS011;33747;49.524;8.390;2023-06-14T01:04:40;8.55;;;3.83;;
7338;SDS011;33747;49.524;8.390;2023-06-14T01:15:41;9.02;;;3.97;;
7338;SDS011;33747;49.524;8.390;2023-06-14T01:18:08;7.95;;;3.83;;
7338;SDS011;33747;49.524;8.390;2023-06-14T01:20:33;5.70;;;4.43;;
7338;SDS011;33747;49.524;8.390;2023-06-14T01:23:02;10.90;;;4.05;;
7338;SDS011;33747;49.524;8.390;2023-06-14T01:25:28;17.73;;;4.82;;
7338;SDS011;33747;49.524;8.390;2023-06-14T01:27:55;6.15;;;4.20;;
7338;SDS011;33747;49.524;8.390;2023-06-14T01:30:22;5.60;;;3.67;;
7338;SDS011;33747;49.524;8.390;2023-06-14T01:32:48;4.95;;;3.65;;
7338;SDS011;33747;49.524;8.390;2023-06-14T01:35:15;7.45;;;4.10;;
7338;SDS011;33747;49.524;8.390;2023-06-14T01:37:41;12.23;;;4.47;;
7338;SDS011;33747;49.524;8.390;2023-06-14T01:40:07;6.90;;;4.40;;
7338;SDS011;33747;49.524;8.390;2023-06-14T01:42:36;12.93;;;4.85;;
7338;SDS011;33747;49.524;8.390;2023-06-14T01:45:03;9.73;;;3.65;;
7338;SDS011;33747;49.524;8.390;2023-06-14T01:47:30;9.88;;;4.15;;
7338;SDS011;33747;49.524;8.390;2023-06-14T01:49:56;8.77;;;4.03;;
7338;SDS011;33747;49.524;8.390;2023-06-14T01:52:21;5.25;;;3.85;;
7338;SDS011;33747;49.524;8.390;2023-06-14T01:54:49;4.50;;;3.88;;
7338;SDS011;33747;49.524;8.390;2023-06-14T01:57:14;9.77;;;4.15;;
7338;SDS011;33747;49.524;8.390;2023-06-14T01:59:40;9.75;;;4.80;;
7338;SDS011;33747;49.524;8.390;2023-06-14T02:02:05;8.40;;;4.15;;
7338;SDS011;33747;49.524;8.390;2023-06-14T02:04:30;4.70;;;4.20;;
7338;SDS011;33747;49.524;8.390;2023-06-14T02:06:56;9.88;;;4.70;;
7338;SDS011;33747;49.524;8.390;2023-06-14T02:09:21;8.55;;;4.15;;
7338;SDS011;33747;49.524;8.390;2023-06-14T02:11:47;6.70;;;4.70;;
7338;SDS011;33747;49.524;8.390;2023-06-14T02:14:12;9.85;;;4.53;;
7338;SDS011;33747;49.524;8.390;2023-06-14T02:16:37;7.50;;;4.40;;
7338;SDS011;33747;49.524;8.390;2023-06-14T02:19:04;9.00;;;4.32;;
7338;SDS011;33747;49.524;8.390;2023-06-14T02:21:29;9.93;;;4.43;;
7338;SDS011;33747;49.524;8.390;2023-06-14T02:23:55;5.97;;;4.40;;
7338;SDS011;33747;49.524;8.390;2023-06-14T02:26:20;7.80;;;4.63;;
7338;SDS011;33747;49.524;8.390;2023-06-14T02:28:47;6.32;;;4.18;;
7338;SDS011;33747;49.524;8.390;2023-06-14T02:31:13;8.35;;;4.93;;
7338;SDS011;33747;49.524;8.390;2023-06-14T02:33:38;6.13;;;4.25;;
7338;SDS011;33747;49.524;8.390;2023-06-14T02:36:04;6.43;;;5.03;;
7338;SDS011;33747;49.524;8.390;2023-06-14T02:38:29;7.15;;;4.53;;
7338;SDS011;33747;49.524;8.390;2023-06-14T02:40:55;11.73;;;5.18;;
7338;SDS011;33747;49.524;8.390;2023-06-14T02:43:20;7.20;;;4.65;;
7338;SDS011;33747;49.524;8.390;2023-06-14T02:45:46;5.63;;;4.53;;
7338;SDS011;33747;49.524;8.390;2023-06-14T02:48:11;14.70;;;4.95;;
7338;SDS011;33747;49.524;8.390;2023-06-14T02:50:36;6.47;;;4.88;;
7338;SDS011;33747;49.524;8.390;2023-06-14T02:53:02;10.85;;;5.35;;
7338;SDS011;33747;49.524;8.390;2023-06-14T02:55:27;5.38;;;4.28;;
7338;SDS011;33747;49.524;8.390;2023-06-14T02:57:53;6.38;;;4.80;;
7338;SDS011;33747;49.524;8.390;2023-06-14T03:00:19;6.60;;;4.80;;
7338;SDS011;33747;49.524;8.390;2023-06-14T03:02:44;7.43;;;5.07;;
7338;SDS011;33747;49.524;8.390;2023-06-14T03:05:10;13.15;;;4.80;;
7338;SDS011;33747;49.524;8.390;2023-06-14T03:07:36;9.20;;;4.93;;
7338;SDS011;33747;49.524;8.390;2023-06-14T03:10:06;5.00;;;4.50;;
7338;SDS011;33747;49.524;8.390;2023-06-14T03:12:34;8.18;;;5.22;;
7338;SDS011;33747;49.524;8.390;2023-06-14T03:15:00;11.70;;;4.78;;
7338;SDS011;33747;49.524;8.390;2023-06-14T03:17:29;5.93;;;4.47;;
7338;SDS011;33747;49.524;8.390;2023-06-14T03:19:58;8.73;;;5.05;;
7338;SDS011;33747;49.524;8.390;2023-06-14T03:22:23;7.63;;;4.80;;
7338;SDS011;33747;49.524;8.390;2023-06-14T03:24:50;11.98;;;4.63;;
7338;SDS011;33747;49.524;8.390;2023-06-14T03:27:17;10.20;;;5.15;;
7338;SDS011;33747;49.524;8.390;2023-06-14T03:29:42;8.68;;;5.40;;
7338;SDS011;33747;49.524;8.390;2023-06-14T03:32:08;12.63;;;4.97;;
7338;SDS011;33747;49.524;8.390;2023-06-14T03:34:33;8.10;;;4.70;;
7338;SDS011;33747;49.524;8.390;2023-06-14T03:36:59;7.10;;;5.00;;
7338;SDS011;33747;49.524;8.390;2023-06-14T03:39:25;5.53;;;4.53;;
7338;SDS011;33747;49.524;8.390;2023-06-14T03:41:50;12.25;;;4.32;;
7338;SDS011;33747;49.524;8.390;2023-06-14T03:44:16;8.25;;;4.95;;
7338;SDS011;33747;49.524;8.390;2023-06-14T03:46:43;9.27;;;4.65;;
7338;SDS011;33747;49.524;8.390;2023-06-14T03:49:09;10.02;;;4.95;;
7338;SDS011;33747;49.524;8.390;2023-06-14T03:51:35;7.63;;;4.68;;
7338;SDS011;33747;49.524;8.390;2023-06-14T03:54:01;8.23;;;4.68;;
7338;SDS011;33747;49.524;8.390;2023-06-14T03:56:26;10.70;;;4.80;;
7338;SDS011;33747;49.524;8.390;2023-06-14T03:58:52;7.38;;;4.70;;
7338;SDS011;33747;49.524;8.390;2023-06-14T04:01:17;7.53;;;4.45;;
7338;SDS011;33747;49.524;8.390;2023-06-14T04:03:42;10.63;;;5.05;;
7338;SDS011;33747;49.524;8.390;2023-06-14T04:06:08;7.90;;;4.43;;
7338;SDS011;33747;49.524;8.390;2023-06-14T04:08:33;8.00;;;4.63;;
7338;SDS011;33747;49.524;8.390;2023-06-14T04:10:59;5.30;;;4.47;;
7338;SDS011;33747;49.524;8.390;2023-06-14T04:13:25;14.65;;;3.88;;
7338;SDS011;33747;49.524;8.390;2023-06-14T04:15:50;15.38;;;4.50;;
7338;SDS011;33747;49.524;8.390;2023-06-14T04:18:16;7.93;;;4.43;;
7338;SDS011;33747;49.524;8.390;2023-06-14T04:20:41;9.65;;;4.15;;
7338;SDS011;33747;49.524;8.390;2023-06-14T04:23:15;5.63;;;4.78;;
7338;SDS011;33747;49.524;8.390;2023-06-14T04:25:46;16.98;;;4.50;;
7338;SDS011;33747;49.524;8.390;2023-06-14T04:28:12;5.88;;;4.20;;
7338;SDS011;33747;49.524;8.390;2023-06-14T04:30:40;5.05;;;4.00;;
7338;SDS011;33747;49.524;8.390;2023-06-14T04:33:05;5.05;;;4.22;;
7338;SDS011;33747;49.524;8.390;2023-06-14T04:35:31;5.82;;;4.20;;
7338;SDS011;33747;49.524;8.390;2023-06-14T04:37:57;10.65;;;5.38;;
7338;SDS011;33747;49.524;8.390;2023-06-14T04:40:23;8.48;;;4.20;;
7338;SDS011;33747;49.524;8.390;2023-06-14T04:42:48;7.38;;;4.60;;
7338;SDS011;33747;49.524;8.390;2023-06-14T04:45:15;8.35;;;4.35;;
7338;SDS011;33747;49.524;8.390;2023-06-14T04:47:41;8.70;;;4.28;;
7338;SDS011;33747;49.524;8.390;2023-06-14T04:50:07;6.45;;;4.32;;
7338;SDS011;33747;49.524;8.390;2023-06-14T04:52:32;10.30;;;4.50;;
7338;SDS011;33747;49.524;8.390;2023-06-14T04:55:00;8.70;;;4.00;;
7338;SDS011;33747;49.524;8.390;2023-06-14T04:57:26;8.63;;;4.00;;
7338;SDS011;33747;49.524;8.390;2023-06-14T04:59:52;5.93;;;4.03;;
7338;SDS011;33747;49.524;8.390;2023-06-14T05:02:20;10.10;;;4.15;;
7338;SDS011;33747;49.524;8.390;2023-06-14T05:04:46;8.35;;;4.47;;
7338;SDS011;33747;49.524;8.390;2023-06-14T05:07:12;5.60;;;3.78;;
7338;SDS011;33747;49.524;8.390;2023-06-14T05:09:39;11.02;;;4.05;;
7338;SDS011;33747;49.524;8.390;2023-06-14T05:12:04;8.80;;;3.90;;
7338;SDS011;33747;49.524;8.390;2023-06-14T05:14:33;3.83;;;3.42;;
7338;SDS011;33747;49.524;8.390;2023-06-14T05:16:58;9.10;;;3.80;;
7338;SDS011;33747;49.524;8.390;2023-06-14T05:19:24;6.43;;;3.78;;
7338;SDS011;33747;49.524;8.390;2023-06-14T05:21:49;7.10;;;4.10;;
7338;SDS011;33747;49.524;8.390;2023-06-14T05:24:15;5.88;;;3.60;;
7338;SDS011;33747;49.524;8.390;2023-06-14T05:26:42;7.95;;;4.32;;
7338;SDS011;33747;49.524;8.390;2023-06-14T05:29:08;9.85;;;3.78;;
7338;SDS011;33747;49.524;8.390;2023-06-14T05:31:33;9.00;;;4.05;;
7338;SDS011;33747;49.524;8.390;2023-06-14T05:33:58;10.63;;;3.85;;
7338;SDS011;33747;49.524;8.390;2023-06-14T05:36:24;12.32;;;4.10;;
7338;SDS011;33747;49.524;8.390;2023-06-14T05:38:50;7.93;;;3.83;;
7338;SDS011;33747;49.524;8.390;2023-06-14T05:41:22;15.88;;;4.10;;
7338;SDS011;33747;49.524;8.390;2023-06-14T05:43:47;5.97;;;3.70;;
7338;SDS011;33747;49.524;8.390;2023-06-14T05:46:13;10.57;;;3.78;;
7338;SDS011;33747;49.524;8.390;2023-06-14T05:48:38;7.13;;;3.85;;
7338;SDS011;33747;49.524;8.390;2023-06-14T05:51:04;6.35;;;3.80;;
7338;SDS011;33747;49.524;8.390;2023-06-14T05:53:29;6.65;;;3.53;;
7338;SDS011;33747;49.524;8.390;2023-06-14T05:55:54;9.23;;;3.85;;
7338;SDS011;33747;49.524;8.390;2023-06-14T05:58:20;5.47;;;4.00;;
7338;SDS011;33747;49.524;8.390;2023-06-14T06:00:46;15.13;;;3.83;;
7338;SDS011;33747;49.524;8.390;2023-06-14T06:03:11;5.55;;;3.63;;
7338;SDS011;33747;49.524;8.390;2023-06-14T06:05:38;14.20;;;3.97;;
7338;SDS011;33747;49.524;8.390;2023-06-14T06:08:03;16.10;;;4.13;;
7338;SDS011;33747;49.524;8.390;2023-06-14T06:10:29;11.30;;;3.85;;
7338;SDS011;33747;49.524;8.390;2023-06-14T06:12:54;11.23;;;3.90;;
7338;SDS011;33747;49.524;8.390;2023-06-14T06:15:20;6.63;;;3.33;;
7338;SDS011;33747;49.524;8.390;2023-06-14T06:17:45;5.97;;;3.72;;
7338;SDS011;33747;49.524;8.390;2023-06-14T06:20:11;10.13;;;4.20;;
7338;SDS011;33747;49.524;8.390;2023-06-14T06:22:36;6.72;;;3.97;;
7338;SDS011;33747;49.524;8.390;2023-06-14T06:25:02;8.60;;;3.63;;
7338;SDS011;33747;49.524;8.390;2023-06-14T06:27:27;5.93;;;3.78;;
7338;SDS011;33747;49.524;8.390;2023-06-14T06:29:53;9.88;;;3.83;;
7338;SDS011;33747;49.524;8.390;2023-06-14T06:32:18;8.63;;;3.45;;
7338;SDS011;33747;49.524;8.390;2023-06-14T06:34:44;7.97;;;3.28;;
7338;SDS011;33747;49.524;8.390;2023-06-14T06:37:09;5.35;;;3.55;;
7338;SDS011;33747;49.524;8.390;2023-06-14T06:39:35;4.45;;;3.30;;
7338;SDS011;33747;49.524;8.390;2023-06-14T06:42:00;4.10;;;3.20;;
7338;SDS011;33747;49.524;8.390;2023-06-14T06:44:26;8.75;;;3.28;;
7338;SDS011;33747;49.524;8.390;2023-06-14T06:46:51;7.32;;;3.88;;
7338;SDS011;33747;49.524;8.390;2023-06-14T06:49:16;5.78;;;3.42;;
7338;SDS011;33747;49.524;8.390;2023-06-14T06:51:42;7.68;;;3.70;;
7338;SDS011;33747;49.524;8.390;2023-06-14T06:54:08;8.77;;;3.58;;
7338;SDS011;33747;49.524;8.390;2023-06-14T06:56:34;11.02;;;3.90;;
7338;SDS011;33747;49.524;8.390;2023-06-14T06:59:00;13.38;;;3.45;;
7338;SDS011;33747;49.524;8.390;2023-06-14T07:01:25;5.95;;;3.35;;
7338;SDS011;33747;49.524;8.390;2023-06-14T07:03:51;5.70;;;3.13;;
7338;SDS011;33747;49.524;8.390;2023-06-14T07:06:16;3.35;;;2.80;;
7338;SDS011;33747;49.524;8.390;2023-06-14T07:08:43;5.40;;;3.17;;
7338;SDS011;33747;49.524;8.390;2023-06-14T07:11:09;6.38;;;2.85;;
7338;SDS011;33747;49.524;8.390;2023-06-14T07:13:34;11.68;;;3.10;;
7338;SDS011;33747;49.524;8.390;2023-06-14T07:16:00;5.40;;;2.60;;
7338;SDS011;33747;49.524;8.390;2023-06-14T07:18:25;7.30;;;3.10;;
7338;SDS011;33747;49.524;8.390;2023-06-14T07:20:51;4.22;;;2.88;;
7338;SDS011;33747;49.524;8.390;2023-06-14T07:23:18;4.43;;;3.42;;
7338;SDS011;33747;49.524;8.390;2023-06-14T07:25:43;6.22;;;3.17;;
7338;SDS011;33747;49.524;8.390;2023-06-14T07:28:09;4.97;;;3.10;;
7338;SDS011;33747;49.524;8.390;2023-06-14T07:30:35;3.35;;;3.03;;
7338;SDS011;33747;49.524;8.390;2023-06-14T07:33:00;5.30;;;3.15;;
7338;SDS011;33747;49.524;8.390;2023-06-14T07:35:25;11.82;;;3.10;;
7338;SDS011;33747;49.524;8.390;2023-06-14T07:37:51;4.00;;;3.10;;
7338;SDS011;33747;49.524;8.390;2023-06-14T07:40:16;5.15;;;3.05;;
7338;SDS011;33747;49.524;8.390;2023-06-14T07:42:42;3.00;;;2.78;;
7338;SDS011;33747;49.524;8.390;2023-06-14T07:45:07;12.23;;;3.67;;
7338;SDS011;33747;49.524;8.390;2023-06-14T07:47:33;9.57;;;3.45;;
7338;SDS011;33747;49.524;8.390;2023-06-14T07:49:58;5.97;;;3.13;;
7338;SDS011;33747;49.524;8.390;2023-06-14T07:52:24;4.20;;;2.97;;
7338;SDS011;33747;49.524;8.390;2023-06-14T07:54:49;8.52;;;3.45;;
7338;SDS011;33747;49.524;8.390;2023-06-14T07:57:15;4.55;;;3.10;;
7338;SDS011;33747;49.524;8.390;2023-06-14T07:59:40;13.15;;;3.42;;
7338;SDS011;33747;49.524;8.390;2023-06-14T08:02:06;7.50;;;3.00;;
7338;SDS011;33747;49.524;8.390;2023-06-14T08:04:31;3.67;;;2.83;;
7338;SDS011;33747;49.524;8.390;2023-06-14T08:06:57;4.50;;;2.75;;
7338;SDS011;33747;49.524;8.390;2023-06-14T08:09:23;10.43;;;3.10;;
7338;SDS011;33747;49.524;8.390;2023-06-14T08:11:50;5.88;;;3.38;;
7338;SDS011;33747;49.524;8.390;2023-06-14T08:14:15;9.00;;;2.90;;
7338;SDS011;33747;49.524;8.390;2023-06-14T08:16:40;7.50;;;2.72;;
7338;SDS011;33747;49.524;8.390;2023-06-14T08:19:06;8.82;;;3.25;;
7338;SDS011;33747;49.524;8.390;2023-06-14T08:21:31;7.57;;;2.90;;
7338;SDS011;33747;49.524;8.390;2023-06-14T08:23:58;7.82;;;3.00;;
7338;SDS011;33747;49.524;8.390;2023-06-14T08:26:24;5.00;;;3.00;;
7338;SDS011;33747;49.524;8.390;2023-06-14T08:28:53;6.88;;;3.17;;
7338;SDS011;33747;49.524;8.390;2023-06-14T08:31:19;11.30;;;3.33;;
7338;SDS011;33747;49.524;8.390;2023-06-14T08:33:45;10.05;;;3.00;;
7338;SDS011;33747;49.524;8.390;2023-06-14T08:36:10;7.20;;;3.10;;
7338;SDS011;33747;49.524;8.390;2023-06-14T08:38:36;6.57;;;3.00;;
7338;SDS011;33747;49.524;8.390;2023-06-14T08:41:02;9.95;;;3.08;;
7338;SDS011;33747;49.524;8.390;2023-06-14T08:43:30;12.43;;;3.17;;
7338;SDS011;33747;49.524;8.390;2023-06-14T08:45:57;7.70;;;3.80;;
7338;SDS011;33747;49.524;8.390;2023-06-14T08:48:25;5.28;;;2.80;;
7338;SDS011;33747;49.524;8.390;2023-06-14T08:50:51;5.32;;;3.17;;
7338;SDS011;33747;49.524;8.390;2023-06-14T08:53:27;8.15;;;3.10;;
7338;SDS011;33747;49.524;8.390;2023-06-14T08:55:54;6.07;;;2.83;;
7338;SDS011;33747;49.524;8.390;2023-06-14T08:58:20;9.98;;;2.50;;
7338;SDS011;33747;49.524;8.390;2023-06-14T09:00:49;4.28;;;3.15;;
7338;SDS011;33747;49.524;8.390;2023-06-14T09:03:15;2.83;;;2.50;;
7338;SDS011;33747;49.524;8.390;2023-06-14T09:05:40;6.97;;;2.90;;
7338;SDS011;33747;49.524;8.390;2023-06-14T09:08:06;4.03;;;2.95;;
7338;SDS011;33747;49.524;8.390;2023-06-14T09:10:31;5.85;;;2.70;;
7338;SDS011;33747;49.524;8.390;2023-06-14T09:13:02;4.85;;;2.40;;
7338;SDS011;33747;49.524;8.390;2023-06-14T09:15:28;5.00;;;2.40;;
7338;SDS011;33747;49.524;8.390;2023-06-14T09:17:53;6.22;;;2.63;;
7338;SDS011;33747;49.524;8.390;2023-06-14T09:20:19;7.85;;;3.10;;
7338;SDS011;33747;49.524;8.390;2023-06-14T09:22:44;5.43;;;2.85;;
7338;SDS011;33747;49.524;8.390;2023-06-14T09:25:10;6.22;;;2.35;;
7338;SDS011;33747;49.524;8.390;2023-06-14T09:27:37;6.13;;;2.67;;
7338;SDS011;33747;49.524;8.390;2023-06-14T09:30:04;6.20;;;2.85;;
7338;SDS011;33747;49.524;8.390;2023-06-14T09:32:37;6.95;;;3.28;;
7338;SDS011;33747;49.524;8.390;2023-06-14T09:35:05;5.70;;;2.92;;
7338;SDS011;33747;49.524;8.390;2023-06-14T09:37:32;3.38;;;2.17;;
7338;SDS011;33747;49.524;8.390;2023-06-14T09:39:58;3.42;;;2.78;;
7338;SDS011;33747;49.524;8.390;2023-06-14T09:42:24;2.63;;;2.42;;
7338;SDS011;33747;49.524;8.390;2023-06-14T09:44:53;5.03;;;2.50;;
7338;SDS011;33747;49.524;8.390;2023-06-14T09:47:20;8.45;;;2.30;;
7338;SDS011;33747;49.524;8.390;2023-06-14T09:49:46;7.70;;;2.60;;
7338;SDS011;33747;49.524;8.390;2023-06-14T09:52:14;2.25;;;2.03;;
7338;SDS011;33747;49.524;8.390;2023-06-14T09:54:41;5.07;;;2.20;;
7338;SDS011;33747;49.524;8.390;2023-06-14T09:57:08;4.60;;;2.30;;
7338;SDS011;33747;49.524;8.390;2023-06-14T09:59:45;2.40;;;2.20;;
7338;SDS011;33747;49.524;8.390;2023-06-14T10:04:50;7.78;;;2.42;;
7338;SDS011;33747;49.524;8.390;2023-06-14T10:07:22;2.88;;;2.10;;
7338;SDS011;33747;49.524;8.390;2023-06-14T10:09:48;5.65;;;2.20;;
7338;SDS011;33747;49.524;8.390;2023-06-14T10:12:17;6.45;;;2.30;;
7338;SDS011;33747;49.524;8.390;2023-06-14T10:14:50;2.47;;;2.28;;
7338;SDS011;33747;49.524;8.390;2023-06-14T10:17:24;11.15;;;2.67;;
7338;SDS011;33747;49.524;8.390;2023-06-14T10:19:58;6.07;;;2.33;;
7338;SDS011;33747;49.524;8.390;2023-06-14T10:22:34;6.32;;;2.90;;
7338;SDS011;33747;49.524;8.390;2023-06-14T10:25:02;2.88;;;2.50;;
7338;SDS011;33747;49.524;8.390;2023-06-14T10:27:32;2.88;;;2.40;;
7338;SDS011;33747;49.524;8.390;2023-06-14T10:32:24;2.88;;;2.50;;
7338;SDS011;33747;49.524;8.390;2023-06-14T10:34:53;10.18;;;2.58;;
7338;SDS011;33747;49.524;8.390;2023-06-14T10:37:19;3.75;;;2.70;;
7338;SDS011;33747;49.524;8.390;2023-06-14T10:39:45;3.80;;;2.60;;
7338;SDS011;33747;49.524;8.390;2023-06-14T10:42:11;7.60;;;2.50;;
7338;SDS011;33747;49.524;8.390;2023-06-14T10:47:05;5.40;;;2.30;;
7338;SDS011;33747;49.524;8.390;2023-06-14T10:50:02;2.78;;;2.47;;
7338;SDS011;33747;49.524;8.390;2023-06-14T10:52:37;7.22;;;2.67;;
7338;SDS011;33747;49.524;8.390;2023-06-14T10:57:44;3.15;;;2.47;;
7338;SDS011;33747;49.524;8.390;2023-06-14T11:00:11;7.85;;;2.80;;
7338;SDS011;33747;49.524;8.390;2023-06-14T11:10:47;4.55;;;2.15;;
7338;SDS011;33747;49.524;8.390;2023-06-14T11:13:12;4.10;;;2.10;;
7338;SDS011;33747;49.524;8.390;2023-06-14T11:15:38;3.53;;;2.10;;
7338;SDS011;33747;49.524;8.390;2023-06-14T11:18:05;10.43;;;2.47;;
7338;SDS011;33747;49.524;8.390;2023-06-14T11:20:32;5.50;;;3.10;;
7338;SDS011;33747;49.524;8.390;2023-06-14T11:22:58;6.35;;;2.53;;
7338;SDS011;33747;49.524;8.390;2023-06-14T11:25:24;4.50;;;2.50;;
7338;SDS011;33747;49.524;8.390;2023-06-14T11:27:51;2.33;;;2.13;;
7338;SDS011;33747;49.524;8.390;2023-06-14T11:30:17;5.25;;;2.20;;
7338;SDS011;33747;49.524;8.390;2023-06-14T11:32:45;7.50;;;2.30;;
7338;SDS011;33747;49.524;8.390;2023-06-14T11:35:14;4.60;;;2.10;;
7338;SDS011;33747;49.524;8.390;2023-06-14T11:37:40;4.55;;;2.25;;
7338;SDS011;33747;49.524;8.390;2023-06-14T11:40:07;4.63;;;2.60;;
7338;SDS011;33747;49.524;8.390;2023-06-14T11:42:34;4.00;;;2.40;;
7338;SDS011;33747;49.524;8.390;2023-06-14T11:45:00;5.15;;;2.55;;
7338;SDS011;33747;49.524;8.390;2023-06-14T11:47:33;3.22;;;2.22;;
7338;SDS011;33747;49.524;8.390;2023-06-14T11:49:59;4.60;;;2.38;;
7338;SDS011;33747;49.524;8.390;2023-06-14T11:52:25;3.50;;;2.08;;
7338;SDS011;33747;49.524;8.390;2023-06-14T11:54:50;4.82;;;2.40;;
7338;SDS011;33747;49.524;8.390;2023-06-14T11:57:17;3.58;;;2.25;;
7338;SDS011;33747;49.524;8.390;2023-06-14T11:59:43;3.97;;;2.42;;
7338;SDS011;33747;49.524;8.390;2023-06-14T12:02:09;3.45;;;1.85;;
7338;SDS011;33747;49.524;8.390;2023-06-14T12:04:35;4.45;;;2.13;;
7338;SDS011;33747;49.524;8.390;2023-06-14T12:07:10;8.88;;;2.65;;
7338;SDS011;33747;49.524;8.390;2023-06-14T12:12:26;2.58;;;2.10;;
7338;SDS011;33747;49.524;8.390;2023-06-14T12:14:51;5.55;;;2.35;;
7338;SDS011;33747;49.524;8.390;2023-06-14T12:17:17;6.88;;;2.90;;
7338;SDS011;33747;49.524;8.390;2023-06-14T12:19:43;4.85;;;2.60;;
7338;SDS011;33747;49.524;8.390;2023-06-14T12:22:10;4.00;;;2.40;;
7338;SDS011;33747;49.524;8.390;2023-06-14T12:24:36;5.85;;;2.22;;
7338;SDS011;33747;49.524;8.390;2023-06-14T12:27:01;6.32;;;2.55;;
7338;SDS011;33747;49.524;8.390;2023-06-14T12:29:29;12.85;;;2.10;;
7338;SDS011;33747;49.524;8.390;2023-06-14T12:31:54;4.30;;;2.72;;
7338;SDS011;33747;49.524;8.390;2023-06-14T12:34:21;9.18;;;2.80;;
7338;SDS011;33747;49.524;8.390;2023-06-14T12:36:51;6.40;;;2.72;;
7338;SDS011;33747;49.524;8.390;2023-06-14T12:39:18;5.57;;;2.25;;
7338;SDS011;33747;49.524;8.390;2023-06-14T12:41:43;3.60;;;2.38;;
7338;SDS011;33747;49.524;8.390;2023-06-14T12:44:09;4.70;;;2.65;;
7338;SDS011;33747;49.524;8.390;2023-06-14T12:46:36;3.38;;;2.53;;
7338;SDS011;33747;49.524;8.390;2023-06-14T12:49:01;5.93;;;2.50;;
7338;SDS011;33747;49.524;8.390;2023-06-14T12:51:27;2.78;;;2.20;;
7338;SDS011;33747;49.524;8.390;2023-06-14T12:53:52;5.25;;;2.45;;
7338;SDS011;33747;49.524;8.390;2023-06-14T12:56:17;2.95;;;2.33;;
7338;SDS011;33747;49.524;8.390;2023-06-14T12:58:43;5.05;;;2.70;;
7338;SDS011;33747;49.524;8.390;2023-06-14T13:01:08;3.67;;;2.40;;
7338;SDS011;33747;49.524;8.390;2023-06-14T13:03:34;2.90;;;2.30;;
7338;SDS011;33747;49.524;8.390;2023-06-14T13:06:00;2.85;;;2.30;;
7338;SDS011;33747;49.524;8.390;2023-06-14T13:08:26;3.22;;;2.15;;
7338;SDS011;33747;49.524;8.390;2023-06-14T13:10:51;3.00;;;2.33;;
7338;SDS011;33747;49.524;8.390;2023-06-14T13:13:17;2.60;;;2.40;;
7338;SDS011;33747;49.524;8.390;2023-06-14T13:15:42;6.13;;;2.33;;
7338;SDS011;33747;49.524;8.390;2023-06-14T13:18:08;3.72;;;2.20;;
7338;SDS011;33747;49.524;8.390;2023-06-14T13:20:34;3.33;;;2.67;;
7338;SDS011;33747;49.524;8.390;2023-06-14T13:22:59;6.30;;;2.30;;
7338;SDS011;33747;49.524;8.390;2023-06-14T13:25:25;6.68;;;2.10;;
7338;SDS011;33747;49.524;8.390;2023-06-14T13:27:50;4.60;;;2.33;;
7338;SDS011;33747;49.524;8.390;2023-06-14T13:30:15;5.47;;;2.35;;
7338;SDS011;33747;49.524;8.390;2023-06-14T13:32:41;4.30;;;2.78;;
7338;SDS011;33747;49.524;8.390;2023-06-14T13:35:06;3.33;;;2.28;;
7338;SDS011;33747;49.524;8.390;2023-06-14T13:37:32;6.25;;;2.45;;
7338;SDS011;33747;49.524;8.390;2023-06-14T13:39:57;4.10;;;2.63;;
7338;SDS011;33747;49.524;8.390;2023-06-14T13:42:23;4.35;;;2.22;;
7338;SDS011;33747;49.524;8.390;2023-06-14T13:44:48;7.65;;;2.10;;
7338;SDS011;33747;49.524;8.390;2023-06-14T13:47:13;2.83;;;2.38;;
7338;SDS011;33747;49.524;8.390;2023-06-14T13:49:39;4.68;;;2.22;;
7338;SDS011;33747;49.524;8.390;2023-06-14T13:52:04;2.85;;;2.28;;
7338;SDS011;33747;49.524;8.390;2023-06-14T13:54:30;5.57;;;1.95;;
7338;SDS011;33747;49.524;8.390;2023-06-14T13:56:55;12.23;;;2.40;;
7338;SDS011;33747;49.524;8.390;2023-06-14T13:59:20;4.30;;;2.00;;
7338;SDS011;33747;49.524;8.390;2023-06-14T14:01:47;7.32;;;2.20;;
7338;SDS011;33747;49.524;8.390;2023-06-14T14:04:13;7.63;;;2.33;;
7338;SDS011;33747;49.524;8.390;2023-06-14T14:06:38;3.38;;;2.40;;
7338;SDS011;33747;49.524;8.390;2023-06-14T14:09:05;3.97;;;1.83;;
7338;SDS011;33747;49.524;8.390;2023-06-14T14:11:30;2.58;;;1.92;;
7338;SDS011;33747;49.524;8.390;2023-06-14T14:13:58;6.45;;;2.20;;
7338;SDS011;33747;49.524;8.390;2023-06-14T14:16:23;4.63;;;2.10;;
7338;SDS011;33747;49.524;8.390;2023-06-14T14:18:49;4.95;;;2.63;;
7338;SDS011;33747;49.524;8.390;2023-06-14T14:21:14;2.83;;;2.28;;
7338;SDS011;33747;49.524;8.390;2023-06-14T14:23:40;4.68;;;2.40;;
7338;SDS011;33747;49.524;8.390;2023-06-14T14:26:05;4.13;;;1.92;;
7338;SDS011;33747;49.524;8.390;2023-06-14T14:28:31;7.68;;;2.53;;
7338;SDS011;33747;49.524;8.390;2023-06-14T14:30:57;3.28;;;2.20;;
7338;SDS011;33747;49.524;8.390;2023-06-14T14:33:23;5.38;;;2.70;;
7338;SDS011;33747;49.524;8.390;2023-06-14T14:35:48;4.40;;;2.95;;
7338;SDS011;33747;49.524;8.390;2023-06-14T14:38:14;8.68;;;2.28;;
7338;SDS011;33747;49.524;8.390;2023-06-14T14:40:43;3.95;;;2.47;;
7338;SDS011;33747;49.524;8.390;2023-06-14T14:43:09;7.57;;;2.40;;
7338;SDS011;33747;49.524;8.390;2023-06-14T14:45:34;16.92;;;3.00;;
7338;SDS011;33747;49.524;8.390;2023-06-14T14:48:01;5.28;;;2.38;;
7338;SDS011;33747;49.524;8.390;2023-06-14T14:50:27;6.20;;;2.78;;
7338;SDS011;33747;49.524;8.390;2023-06-14T14:52:52;5.22;;;2.40;;
7338;SDS011;33747;49.524;8.390;2023-06-14T14:55:18;2.97;;;2.67;;
7338;SDS011;33747;49.524;8.390;2023-06-14T14:57:45;3.45;;;2.42;;
7338;SDS011;33747;49.524;8.390;2023-06-14T15:00:10;4.90;;;2.30;;
7338;SDS011;33747;49.524;8.390;2023-06-14T15:02:36;6.93;;;2.45;;
7338;SDS011;33747;49.524;8.390;2023-06-14T15:05:01;3.05;;;2.20;;
7338;SDS011;33747;49.524;8.390;2023-06-14T15:07:27;2.63;;;2.42;;
7338;SDS011;33747;49.524;8.390;2023-06-14T15:09:53;3.80;;;2.15;;
7338;SDS011;33747;49.524;8.390;2023-06-14T15:12:19;2.88;;;1.98;;
7338;SDS011;33747;49.524;8.390;2023-06-14T15:14:45;6.03;;;2.40;;
7338;SDS011;33747;49.524;8.390;2023-06-14T15:17:10;6.65;;;2.63;;
7338;SDS011;33747;49.524;8.390;2023-06-14T15:19:36;3.63;;;2.30;;
7338;SDS011;33747;49.524;8.390;2023-06-14T15:22:01;5.95;;;2.30;;
7338;SDS011;33747;49.524;8.390;2023-06-14T15:24:26;5.50;;;2.28;;